sensor_id;sensor_type;location;lat;lon;timestamp;pressure;altitude;pressure_sealevel;temperature;humidity
48668;BME280;34453;52.198;5.004;2023-03-16T00:02:04;101851.41;;;5.38;100.00
48668;BME280;34453;52.198;5.004;2023-03-16T00:04:30;101856.59;;;5.38;100.00
48668;BME280;34453;52.198;5.004;2023-03-16T00:06:57;101847.31;;;5.34;100.00
48668;BME280;34453;52.198;5.004;2023-03-16T00:09:23;101846.22;;;5.38;100.00
48668;BME280;34453;52.198;5.004;2023-03-16T00:11:56;101845.13;;;5.43;100.00
48668;BME280;34453;52.198;5.004;2023-03-16T00:14:23;101843.53;;;5.40;100.00
48668;BME280;34453;52.198;5.004;2023-03-16T00:16:49;101834.41;;;5.33;100.00
48668;BME280;34453;52.198;5.004;2023-03-16T00:19:15;101832.22;;;5.41;100.00
48668;BME280;34453;52.198;5.004;2023-03-16T00:21:41;101827.63;;;5.46;100.00
48668;BME280;34453;52.198;5.004;2023-03-16T00:24:06;101837.16;;;5.46;100.00
48668;BME280;34453;52.198;5.004;2023-03-16T00:26:32;101827.69;;;5.45;100.00
48668;BME280;34453;52.198;5.004;2023-03-16T00:28:57;101819.00;;;5.46;100.00
48668;BME280;34453;52.198;5.004;2023-03-16T00:31:22;101816.09;;;5.52;100.00
48668;BME280;34453;52.198;5.004;2023-03-16T00:33:49;101827.38;;;5.51;100.00
48668;BME280;34453;52.198;5.004;2023-03-16T00:36:15;101819.31;;;5.55;100.00
48668;BME280;34453;52.198;5.004;2023-03-16T00:38:41;101823.69;;;5.55;100.00
48668;BME280;34453;52.198;5.004;2023-03-16T00:41:12;101819.00;;;5.61;100.00
48668;BME280;34453;52.198;5.004;2023-03-16T00:43:41;101824.25;;;5.60;100.00
48668;BME280;34453;52.198;5.004;2023-03-16T00:46:10;101815.00;;;5.56;100.00
48668;BME280;34453;52.198;5.004;2023-03-16T00:48:37;101808.94;;;5.55;100.00
48668;BME280;34453;52.198;5.004;2023-03-16T00:51:05;101811.53;;;5.55;100.00
48668;BME280;34453;52.198;5.004;2023-03-16T00:53:32;101812.41;;;5.56;100.00
48668;BME280;34453;52.198;5.004;2023-03-16T00:55:59;101808.13;;;5.55;100.00
48668;BME280;34453;52.198;5.004;2023-03-16T00:58:29;101796.63;;;5.59;100.00
48668;BME280;34453;52.198;5.004;2023-03-16T01:00:54;101785.44;;;5.58;100.00
48668;BME280;34453;52.198;5.004;2023-03-16T01:03:21;101787.00;;;5.61;100.00
48668;BME280;34453;52.198;5.004;2023-03-16T01:05:47;101772.59;;;5.55;100.00
48668;BME280;34453;52.198;5.004;2023-03-16T01:08:13;101787.16;;;5.58;100.00
48668;BME280;34453;52.198;5.004;2023-03-16T01:10:38;101781.31;;;5.54;100.00
48668;BME280;34453;52.198;5.004;2023-03-16T01:13:05;101774.53;;;5.52;100.00
48668;BME280;34453;52.198;5.004;2023-03-16T01:15:32;101777.97;;;5.52;100.00
48668;BME280;34453;52.198;5.004;2023-03-16T01:17:59;101773.78;;;5.50;100.00
48668;BME280;34453;52.198;5.004;2023-03-16T01:20:24;101778.81;;;5.53;100.00
48668;BME280;34453;52.198;5.004;2023-03-16T01:22:50;101772.84;;;5.51;100.00
48668;BME280;34453;52.198;5.004;2023-03-16T01:25:16;101768.59;;;5.50;100.00
48668;BME280;34453;52.198;5.004;2023-03-16T01:27:42;101761.72;;;5.49;100.00
48668;BME280;34453;52.198;5.004;2023-03-16T01:30:09;101754.88;;;5.48;100.00
48668;BME280;34453;52.198;5.004;2023-03-16T01:32:37;101757.72;;;5.43;100.00
48668;BME280;34453;52.198;5.004;2023-03-16T01:35:04;101748.84;;;5.47;100.00
48668;BME280;34453;52.198;5.004;2023-03-16T01:37:30;101745.41;;;5.47;100.00
48668;BME280;34453;52.198;5.004;2023-03-16T01:39:56;101742.16;;;5.43;100.00
48668;BME280;34453;52.198;5.004;2023-03-16T01:42:21;101735.28;;;5.42;100.00
48668;BME280;34453;52.198;5.004;2023-03-16T01:44:55;101726.66;;;5.42;100.00
48668;BME280;34453;52.198;5.004;2023-03-16T01:47:21;101717.22;;;5.40;100.00
48668;BME280;34453;52.198;5.004;2023-03-16T01:49:48;101717.09;;;5.42;100.00
48668;BME280;34453;52.198;5.004;2023-03-16T01:52:22;101717.22;;;5.40;100.00
48668;BME280;34453;52.198;5.004;2023-03-16T01:54:51;101711.28;;;5.38;100.00
48668;BME280;34453;52.198;5.004;2023-03-16T01:57:22;101706.56;;;5.45;100.00
48668;BME280;34453;52.198;5.004;2023-03-16T02:02:17;101709.31;;;5.42;100.00
48668;BME280;34453;52.198;5.004;2023-03-16T02:04:55;101705.00;;;5.43;100.00
48668;BME280;34453;52.198;5.004;2023-03-16T02:07:24;101703.31;;;5.42;100.00
48668;BME280;34453;52.198;5.004;2023-03-16T02:09:54;101706.66;;;5.44;100.00
48668;BME280;34453;52.198;5.004;2023-03-16T02:12:21;101702.28;;;5.44;100.00
48668;BME280;34453;52.198;5.004;2023-03-16T02:14:48;101692.72;;;5.45;100.00
48668;BME280;34453;52.198;5.004;2023-03-16T02:17:17;101692.91;;;5.42;100.00
48668;BME280;34453;52.198;5.004;2023-03-16T02:22:21;101692.91;;;5.42;100.00
48668;BME280;34453;52.198;5.004;2023-03-16T02:24:50;101680.03;;;5.40;100.00
48668;BME280;34453;52.198;5.004;2023-03-16T02:28:09;101691.34;;;5.39;100.00
48668;BME280;34453;52.198;5.004;2023-03-16T02:30:16;101691.34;;;5.39;100.00
48668;BME280;34453;52.198;5.004;2023-03-16T02:32:43;101681.72;;;5.41;100.00
48668;BME280;34453;52.198;5.004;2023-03-16T02:35:10;101684.31;;;5.41;100.00
48668;BME280;34453;52.198;5.004;2023-03-16T02:37:37;101690.13;;;5.45;100.00
48668;BME280;34453;52.198;5.004;2023-03-16T02:45:23;101684.78;;;5.48;100.00
48668;BME280;34453;52.198;5.004;2023-03-16T02:47:52;101686.63;;;5.46;100.00
48668;BME280;34453;52.198;5.004;2023-03-16T02:50:18;101684.94;;;5.45;100.00
48668;BME280;34453;52.198;5.004;2023-03-16T02:52:44;101679.75;;;5.45;100.00
48668;BME280;34453;52.198;5.004;2023-03-16T02:55:11;101683.22;;;5.45;100.00
48668;BME280;34453;52.198;5.004;2023-03-16T02:57:37;101688.28;;;5.47;100.00
48668;BME280;34453;52.198;5.004;2023-03-16T03:00:03;101690.88;;;5.47;100.00
48668;BME280;34453;52.198;5.004;2023-03-16T03:02:35;101678.38;;;5.39;100.00
48668;BME280;34453;52.198;5.004;2023-03-16T03:05:01;101679.75;;;5.45;100.00
48668;BME280;34453;52.198;5.004;2023-03-16T03:07:26;101682.34;;;5.45;100.00
48668;BME280;34453;52.198;5.004;2023-03-16T03:09:56;101681.03;;;5.37;100.00
48668;BME280;34453;52.198;5.004;2023-03-16T03:12:21;101682.63;;;5.40;100.00
48668;BME280;34453;52.198;5.004;2023-03-16T03:14:47;101675.84;;;5.37;100.00
48668;BME280;34453;52.198;5.004;2023-03-16T03:17:12;101677.69;;;5.35;100.00
48668;BME280;34453;52.198;5.004;2023-03-16T03:19:38;101669.34;;;5.30;100.00
48668;BME280;34453;52.198;5.004;2023-03-16T03:22:04;101673.69;;;5.30;100.00
48668;BME280;34453;52.198;5.004;2023-03-16T03:24:32;101665.09;;;5.29;100.00
48668;BME280;34453;52.198;5.004;2023-03-16T03:26:58;101671.94;;;5.30;100.00
48668;BME280;34453;52.198;5.004;2023-03-16T03:29:25;101665.41;;;5.23;100.00
48668;BME280;34453;52.198;5.004;2023-03-16T03:31:59;101652.78;;;5.17;100.00
48668;BME280;34453;52.198;5.004;2023-03-16T03:34:26;101654.38;;;5.19;100.00
48668;BME280;34453;52.198;5.004;2023-03-16T03:36:51;101649.38;;;5.16;100.00
48668;BME280;34453;52.198;5.004;2023-03-16T03:39:18;101655.31;;;5.18;100.00
48668;BME280;34453;52.198;5.004;2023-03-16T03:41:43;101652.97;;;5.14;100.00
48668;BME280;34453;52.198;5.004;2023-03-16T03:44:09;101658.22;;;5.12;100.00
48668;BME280;34453;52.198;5.004;2023-03-16T03:46:35;101654.63;;;5.15;100.00
48668;BME280;34453;52.198;5.004;2023-03-16T03:49:00;101651.28;;;5.13;100.00
48668;BME280;34453;52.198;5.004;2023-03-16T03:51:29;101633.31;;;5.10;100.00
48668;BME280;34453;52.198;5.004;2023-03-16T03:53:55;101648.03;;;5.09;100.00
48668;BME280;34453;52.198;5.004;2023-03-16T03:56:21;101640.06;;;5.12;100.00
48668;BME280;34453;52.198;5.004;2023-03-16T03:58:46;101633.47;;;5.07;100.00
48668;BME280;34453;52.198;5.004;2023-03-16T04:01:12;101634.88;;;5.12;100.00
48668;BME280;34453;52.198;5.004;2023-03-16T04:03:37;101632.28;;;5.12;100.00
48668;BME280;34453;52.198;5.004;2023-03-16T04:06:03;101625.34;;;5.13;100.00
48668;BME280;34453;52.198;5.004;2023-03-16T04:08:28;101627.84;;;5.14;100.00
48668;BME280;34453;52.198;5.004;2023-03-16T04:10:54;101616.53;;;5.15;100.00
48668;BME280;34453;52.198;5.004;2023-03-16T04:13:19;101616.38;;;5.18;100.00
48668;BME280;34453;52.198;5.004;2023-03-16T04:15:44;101611.28;;;5.17;100.00
48668;BME280;34453;52.198;5.004;2023-03-16T04:18:11;101615.38;;;5.21;100.00
48668;BME280;34453;52.198;5.004;2023-03-16T04:20:37;101613.78;;;5.18;100.00
48668;BME280;34453;52.198;5.004;2023-03-16T04:23:02;101613.69;;;5.20;100.00
48668;BME280;34453;52.198;5.004;2023-03-16T04:25:29;101603.97;;;5.24;100.00
48668;BME280;34453;52.198;5.004;2023-03-16T04:27:55;101605.66;;;5.25;100.00
48668;BME280;34453;52.198;5.004;2023-03-16T04:30:21;101609.25;;;5.22;100.00
48668;BME280;34453;52.198;5.004;2023-03-16T04:32:49;101598.72;;;5.25;100.00
48668;BME280;34453;52.198;5.004;2023-03-16T04:35:16;101603.72;;;5.28;100.00
48668;BME280;34453;52.198;5.004;2023-03-16T04:37:42;101601.31;;;5.25;100.00
48668;BME280;34453;52.198;5.004;2023-03-16T04:40:08;101599.53;;;5.26;100.00
48668;BME280;34453;52.198;5.004;2023-03-16T04:42:39;101594.91;;;5.31;100.00
48668;BME280;34453;52.198;5.004;2023-03-16T04:45:05;101590.75;;;5.28;100.00
48668;BME280;34453;52.198;5.004;2023-03-16T04:47:31;101590.00;;;5.26;100.00
48668;BME280;34453;52.198;5.004;2023-03-16T04:49:59;101581.31;;;5.27;100.00
48668;BME280;34453;52.198;5.004;2023-03-16T04:52:25;101586.38;;;5.29;100.00
48668;BME280;34453;52.198;5.004;2023-03-16T04:54:50;101579.63;;;5.26;100.00
48668;BME280;34453;52.198;5.004;2023-03-16T04:57:16;101588.81;;;5.32;100.00
48668;BME280;34453;52.198;5.004;2023-03-16T04:59:43;101585.75;;;5.25;100.00
48668;BME280;34453;52.198;5.004;2023-03-16T05:02:09;101589.66;;;5.32;100.00
48668;BME280;34453;52.198;5.004;2023-03-16T05:04:34;101593.34;;;5.28;100.00
48668;BME280;34453;52.198;5.004;2023-03-16T05:07:00;101593.25;;;5.30;100.00
48668;BME280;34453;52.198;5.004;2023-03-16T05:09:25;101596.69;;;5.30;100.00
48668;BME280;34453;52.198;5.004;2023-03-16T05:11:51;101591.69;;;5.27;100.00
48668;BME280;34453;52.198;5.004;2023-03-16T05:14:16;101595.03;;;5.29;100.00
48668;BME280;34453;52.198;5.004;2023-03-16T05:16:41;101602.69;;;5.31;100.00
48668;BME280;34453;52.198;5.004;2023-03-16T05:19:07;101599.53;;;5.26;100.00
48668;BME280;34453;52.198;5.004;2023-03-16T05:21:32;101589.84;;;5.29;100.00
48668;BME280;34453;52.198;5.004;2023-03-16T05:23:58;101596.88;;;5.27;100.00
48668;BME280;34453;52.198;5.004;2023-03-16T05:26:24;101597.13;;;5.23;100.00
48668;BME280;34453;52.198;5.004;2023-03-16T05:28:52;101594.44;;;5.24;100.00
48668;BME280;34453;52.198;5.004;2023-03-16T05:31:18;101591.09;;;5.22;100.00
48668;BME280;34453;52.198;5.004;2023-03-16T05:33:43;101591.09;;;5.22;100.00
48668;BME280;34453;52.198;5.004;2023-03-16T05:36:09;101583.22;;;5.24;100.00
48668;BME280;34453;52.198;5.004;2023-03-16T05:38:35;101583.50;;;5.19;100.00
48668;BME280;34453;52.198;5.004;2023-03-16T05:41:01;101579.25;;;5.18;100.00
48668;BME280;34453;52.198;5.004;2023-03-16T05:43:29;101573.31;;;5.16;100.00
48668;BME280;34453;52.198;5.004;2023-03-16T05:45:55;101576.81;;;5.15;100.00
48668;BME280;34453;52.198;5.004;2023-03-16T05:48:21;101570.72;;;5.16;100.00
48668;BME280;34453;52.198;5.004;2023-03-16T05:50:47;101568.28;;;5.13;100.00
48668;BME280;34453;52.198;5.004;2023-03-16T05:53:13;101568.38;;;5.11;100.00
48668;BME280;34453;52.198;5.004;2023-03-16T05:55:39;101569.97;;;5.14;100.00
48668;BME280;34453;52.198;5.004;2023-03-16T05:58:05;101564.78;;;5.14;100.00
48668;BME280;34453;52.198;5.004;2023-03-16T06:00:31;101563.28;;;5.10;100.00
48668;BME280;34453;52.198;5.004;2023-03-16T06:02:56;101560.84;;;5.07;100.00
48668;BME280;34453;52.198;5.004;2023-03-16T06:05:22;101552.06;;;5.09;100.00
48668;BME280;34453;52.198;5.004;2023-03-16T06:07:49;101558.91;;;5.10;100.00
48668;BME280;34453;52.198;5.004;2023-03-16T06:10:15;101551.81;;;5.14;100.00
48668;BME280;34453;52.198;5.004;2023-03-16T06:12:41;101554.28;;;5.15;100.00
48668;BME280;34453;52.198;5.004;2023-03-16T06:15:08;101554.56;;;5.11;100.00
48668;BME280;34453;52.198;5.004;2023-03-16T06:17:35;101555.22;;;5.14;100.00
48668;BME280;34453;52.198;5.004;2023-03-16T06:20:02;101557.56;;;5.19;100.00
48668;BME280;34453;52.198;5.004;2023-03-16T06:22:29;101555.72;;;5.21;100.00
48668;BME280;34453;52.198;5.004;2023-03-16T06:24:54;101552.19;;;5.22;100.00
48668;BME280;34453;52.198;5.004;2023-03-16T06:27:20;101551.34;;;5.22;100.00
48668;BME280;34453;52.198;5.004;2023-03-16T06:29:46;101536.13;;;5.15;100.00
48668;BME280;34453;52.198;5.004;2023-03-16T06:32:13;101534.94;;;5.21;100.00
48668;BME280;34453;52.198;5.004;2023-03-16T06:34:38;101525.47;;;5.20;100.00
48668;BME280;34453;52.198;5.004;2023-03-16T06:37:06;101533.66;;;5.28;100.00
48668;BME280;34453;52.198;5.004;2023-03-16T06:39:31;101539.41;;;5.33;100.00
48668;BME280;34453;52.198;5.004;2023-03-16T06:41:57;101534.22;;;5.33;100.00
48668;BME280;34453;52.198;5.004;2023-03-16T06:44:22;101531.72;;;5.32;100.00
48668;BME280;34453;52.198;5.004;2023-03-16T06:46:48;101503.19;;;5.32;100.00
48668;BME280;34453;52.198;5.004;2023-03-16T06:49:13;101511.72;;;5.34;100.00
48668;BME280;34453;52.198;5.004;2023-03-16T06:51:39;101513.28;;;5.36;100.00
48668;BME280;34453;52.198;5.004;2023-03-16T06:54:04;101510.59;;;5.38;100.00
48668;BME280;34453;52.198;5.004;2023-03-16T06:56:30;101510.16;;;5.46;100.00
48668;BME280;34453;52.198;5.004;2023-03-16T06:58:56;101514.78;;;5.40;100.00
48668;BME280;34453;52.198;5.004;2023-03-16T07:01:22;101505.88;;;5.45;100.00
48668;BME280;34453;52.198;5.004;2023-03-16T07:03:48;101514.97;;;5.52;100.00
48668;BME280;34453;52.198;5.004;2023-03-16T07:06:14;101507.34;;;5.49;100.00
48668;BME280;34453;52.198;5.004;2023-03-16T07:08:39;101508.03;;;5.52;100.00
48668;BME280;34453;52.198;5.004;2023-03-16T07:11:04;101509.03;;;5.50;100.00
48668;BME280;34453;52.198;5.004;2023-03-16T07:13:30;101519.31;;;5.51;100.00
48668;BME280;34453;52.198;5.004;2023-03-16T07:15:55;101514.03;;;5.53;100.00
48668;BME280;34453;52.198;5.004;2023-03-16T07:18:21;101510.91;;;5.48;100.00
48668;BME280;34453;52.198;5.004;2023-03-16T07:20:47;101506.53;;;5.48;100.00
48668;BME280;34453;52.198;5.004;2023-03-16T07:23:12;101494.50;;;5.47;100.00
48668;BME280;34453;52.198;5.004;2023-03-16T07:25:38;101496.34;;;5.45;100.00
48668;BME280;34453;52.198;5.004;2023-03-16T07:28:03;101500.31;;;5.51;100.00
48668;BME280;34453;52.198;5.004;2023-03-16T07:30:29;101505.72;;;5.48;100.00
48668;BME280;34453;52.198;5.004;2023-03-16T07:32:55;101502.84;;;5.52;100.00
48668;BME280;34453;52.198;5.004;2023-03-16T07:35:21;101503.28;;;5.59;100.00
48668;BME280;34453;52.198;5.004;2023-03-16T07:37:47;101495.72;;;5.56;100.00
48668;BME280;34453;52.198;5.004;2023-03-16T07:40:13;101510.72;;;5.65;100.00
48668;BME280;34453;52.198;5.004;2023-03-16T07:42:39;101501.09;;;5.67;100.00
48668;BME280;34453;52.198;5.004;2023-03-16T07:45:05;101498.28;;;5.70;100.00
48668;BME280;34453;52.198;5.004;2023-03-16T07:47:31;101513.59;;;5.75;100.00
48668;BME280;34453;52.198;5.004;2023-03-16T07:49:58;101499.03;;;5.72;100.00
48668;BME280;34453;52.198;5.004;2023-03-16T07:52:23;101490.88;;;5.78;100.00
48668;BME280;34453;52.198;5.004;2023-03-16T07:54:49;101496.91;;;5.79;100.00
48668;BME280;34453;52.198;5.004;2023-03-16T07:57:15;101491.13;;;5.88;100.00
48668;BME280;34453;52.198;5.004;2023-03-16T07:59:41;101494.56;;;5.89;100.00
48668;BME280;34453;52.198;5.004;2023-03-16T08:02:12;101488.66;;;6.01;100.00
48668;BME280;34453;52.198;5.004;2023-03-16T08:04:38;101482.88;;;6.10;100.00
48668;BME280;34453;52.198;5.004;2023-03-16T08:07:10;101481.53;;;6.17;100.00
48668;BME280;34453;52.198;5.004;2023-03-16T08:09:36;101483.84;;;6.22;100.00
48668;BME280;34453;52.198;5.004;2023-03-16T08:12:02;101500.31;;;6.22;100.00
48668;BME280;34453;52.198;5.004;2023-03-16T08:14:29;101481.38;;;6.20;100.00
48668;BME280;34453;52.198;5.004;2023-03-16T08:16:54;101490.63;;;6.25;100.00
48668;BME280;34453;52.198;5.004;2023-03-16T08:19:20;101479.22;;;6.27;100.00
48668;BME280;34453;52.198;5.004;2023-03-16T08:21:45;101497.13;;;6.32;100.00
48668;BME280;34453;52.198;5.004;2023-03-16T08:24:10;101504.63;;;6.36;100.00
48668;BME280;34453;52.198;5.004;2023-03-16T08:26:36;101497.00;;;6.33;100.00
48668;BME280;34453;52.198;5.004;2023-03-16T08:29:01;101487.16;;;6.38;100.00
48668;BME280;34453;52.198;5.004;2023-03-16T08:31:27;101488.63;;;6.42;100.00
48668;BME280;34453;52.198;5.004;2023-03-16T08:33:56;101482.41;;;6.45;100.00
48668;BME280;34453;52.198;5.004;2023-03-16T08:36:22;101500.00;;;6.54;100.00
48668;BME280;34453;52.198;5.004;2023-03-16T08:38:48;101490.53;;;6.53;100.00
48668;BME280;34453;52.198;5.004;2023-03-16T08:41:13;101501.28;;;6.61;100.00
48668;BME280;34453;52.198;5.004;2023-03-16T08:43:41;101494.28;;;6.62;100.00
48668;BME280;34453;52.198;5.004;2023-03-16T08:46:07;101480.16;;;6.66;100.00
48668;BME280;34453;52.198;5.004;2023-03-16T08:48:32;101478.94;;;6.72;100.00
48668;BME280;34453;52.198;5.004;2023-03-16T08:51:02;101477.09;;;6.74;100.00
48668;BME280;34453;52.198;5.004;2023-03-16T08:53:28;101476.66;;;6.80;100.00
48668;BME280;34453;52.198;5.004;2023-03-16T08:56:20;101478.34;;;6.81;100.00
48668;BME280;34453;52.198;5.004;2023-03-16T08:58:46;101465.94;;;6.84;100.00
48668;BME280;34453;52.198;5.004;2023-03-16T09:01:13;101468.75;;;6.81;100.00
48668;BME280;34453;52.198;5.004;2023-03-16T09:03:41;101465.84;;;6.86;100.00
48668;BME280;34453;52.198;5.004;2023-03-16T09:06:08;101470.22;;;6.85;100.00
48668;BME280;34453;52.198;5.004;2023-03-16T09:08:35;101473.66;;;6.86;100.00
48668;BME280;34453;52.198;5.004;2023-03-16T09:11:02;101470.66;;;6.92;100.00
48668;BME280;34453;52.198;5.004;2023-03-16T09:13:29;101477.31;;;6.96;100.00
48668;BME280;34453;52.198;5.004;2023-03-16T09:15:56;101471.00;;;7.00;100.00
48668;BME280;34453;52.198;5.004;2023-03-16T09:18:23;101470.03;;;7.01;100.00
48668;BME280;34453;52.198;5.004;2023-03-16T09:20:51;101466.09;;;7.09;100.00
48668;BME280;34453;52.198;5.004;2023-03-16T09:23:16;101461.63;;;7.11;100.00
48668;BME280;34453;52.198;5.004;2023-03-16T09:25:44;101466.41;;;7.17;100.00
48668;BME280;34453;52.198;5.004;2023-03-16T09:28:09;101462.97;;;7.29;100.00
48668;BME280;34453;52.198;5.004;2023-03-16T09:30:35;101443.19;;;7.26;100.00
48668;BME280;34453;52.198;5.004;2023-03-16T09:33:02;101445.28;;;7.34;100.00
48668;BME280;34453;52.198;5.004;2023-03-16T09:35:28;101451.09;;;7.51;100.00
48668;BME280;34453;52.198;5.004;2023-03-16T09:37:54;101448.16;;;7.55;100.00
48668;BME280;34453;52.198;5.004;2023-03-16T09:40:23;101455.78;;;7.58;100.00
48668;BME280;34453;52.198;5.004;2023-03-16T09:48:31;101441.94;;;7.95;100.00
48668;BME280;34453;52.198;5.004;2023-03-16T09:50:59;101453.50;;;7.91;100.00
48668;BME280;34453;52.198;5.004;2023-03-16T09:53:31;101441.56;;;8.12;100.00
48668;BME280;34453;52.198;5.004;2023-03-16T09:56:06;101438.72;;;8.39;100.00
48668;BME280;34453;52.198;5.004;2023-03-16T09:58:33;101427.06;;;8.45;100.00
48668;BME280;34453;52.198;5.004;2023-03-16T10:04:08;101439.84;;;8.24;100.00
48668;BME280;34453;52.198;5.004;2023-03-16T10:07:43;101433.19;;;8.44;100.00
48668;BME280;34453;52.198;5.004;2023-03-16T10:09:42;101427.22;;;8.66;100.00
48668;BME280;34453;52.198;5.004;2023-03-16T10:12:12;101421.66;;;8.70;100.00
48668;BME280;34453;52.198;5.004;2023-03-16T10:14:51;101439.75;;;8.96;100.00
48668;BME280;34453;52.198;5.004;2023-03-16T10:17:54;101431.81;;;9.09;100.00
48668;BME280;34453;52.198;5.004;2023-03-16T10:20:22;101420.56;;;9.31;100.00
48668;BME280;34453;52.198;5.004;2023-03-16T10:22:51;101417.59;;;9.24;100.00
48668;BME280;34453;52.198;5.004;2023-03-16T10:25:40;101418.09;;;9.29;100.00
48668;BME280;34453;52.198;5.004;2023-03-16T10:28:17;101419.97;;;9.27;100.00
48668;BME280;34453;52.198;5.004;2023-03-16T10:30:44;101410.34;;;9.39;100.00
48668;BME280;34453;52.198;5.004;2023-03-16T10:33:19;101414.59;;;9.51;100.00
48668;BME280;34453;52.198;5.004;2023-03-16T10:35:58;101409.38;;;9.40;100.00
48668;BME280;34453;52.198;5.004;2023-03-16T10:38:36;101408.22;;;9.44;100.00
48668;BME280;34453;52.198;5.004;2023-03-16T10:43:52;101408.56;;;9.40;100.00
48668;BME280;34453;52.198;5.004;2023-03-16T10:46:19;101395.63;;;9.38;100.00
48668;BME280;34453;52.198;5.004;2023-03-16T10:48:57;101403.81;;;9.33;100.00
48668;BME280;34453;52.198;5.004;2023-03-16T10:51:28;101389.69;;;9.47;100.00
48668;BME280;34453;52.198;5.004;2023-03-16T10:54:13;101389.78;;;9.57;100.00
48668;BME280;34453;52.198;5.004;2023-03-16T10:56:39;101377.94;;;9.53;100.00
48668;BME280;34453;52.198;5.004;2023-03-16T10:59:24;101379.38;;;9.46;100.00
48668;BME280;34453;52.198;5.004;2023-03-16T11:01:52;101375.91;;;9.57;100.00
48668;BME280;34453;52.198;5.004;2023-03-16T11:04:18;101376.84;;;9.55;100.00
48668;BME280;34453;52.198;5.004;2023-03-16T11:06:53;101373.66;;;9.63;100.00
48668;BME280;34453;52.198;5.004;2023-03-16T11:09:24;101383.75;;;9.57;100.00
48668;BME280;34453;52.198;5.004;2023-03-16T11:11:52;101373.72;;;9.73;100.00
48668;BME280;34453;52.198;5.004;2023-03-16T11:14:24;101355.22;;;9.76;100.00
48668;BME280;34453;52.198;5.004;2023-03-16T11:19:29;101341.78;;;9.81;100.00
48668;BME280;34453;52.198;5.004;2023-03-16T11:22:07;101346.38;;;9.88;100.00
48668;BME280;34453;52.198;5.004;2023-03-16T11:32:19;101348.09;;;10.31;100.00
48668;BME280;34453;52.198;5.004;2023-03-16T11:34:46;101355.84;;;10.33;100.00
48668;BME280;34453;52.198;5.004;2023-03-16T11:42:55;101348.00;;;10.54;100.00
48668;BME280;34453;52.198;5.004;2023-03-16T11:56:33;101345.50;;;10.52;100.00
48668;BME280;34453;52.198;5.004;2023-03-16T12:01:42;101340.91;;;10.66;100.00
48668;BME280;34453;52.198;5.004;2023-03-16T12:04:43;101336.38;;;10.68;100.00
48668;BME280;34453;52.198;5.004;2023-03-16T12:17:32;101324.59;;;11.14;100.00
48668;BME280;34453;52.198;5.004;2023-03-16T12:20:02;101327.50;;;11.20;100.00
48668;BME280;34453;52.198;5.004;2023-03-16T12:22:45;101321.81;;;11.15;100.00
48668;BME280;34453;52.198;5.004;2023-03-16T12:25:19;101318.97;;;11.18;100.00
48668;BME280;34453;52.198;5.004;2023-03-16T12:27:48;101310.22;;;11.08;100.00
48668;BME280;34453;52.198;5.004;2023-03-16T12:30:42;101315.34;;;11.19;100.00
48668;BME280;34453;52.198;5.004;2023-03-16T12:33:19;101312.25;;;11.45;100.00
48668;BME280;34453;52.198;5.004;2023-03-16T12:49:50;101256.56;;;12.01;100.00
48668;BME280;34453;52.198;5.004;2023-03-16T12:52:18;101247.41;;;12.25;100.00
48668;BME280;34453;52.198;5.004;2023-03-16T12:54:52;101239.75;;;12.41;100.00
48668;BME280;34453;52.198;5.004;2023-03-16T12:57:23;101238.75;;;12.52;100.00
48668;BME280;34453;52.198;5.004;2023-03-16T12:59:54;101244.22;;;12.69;100.00
48668;BME280;34453;52.198;5.004;2023-03-16T13:02:28;101234.72;;;12.58;100.00
48668;BME280;34453;52.198;5.004;2023-03-16T13:05:00;101229.28;;;12.69;100.00
48668;BME280;34453;52.198;5.004;2023-03-16T13:07:27;101228.06;;;12.91;100.00
48668;BME280;34453;52.198;5.004;2023-03-16T13:09:57;101243.09;;;12.71;100.00
48668;BME280;34453;52.198;5.004;2023-03-16T13:12:32;101231.97;;;12.59;100.00
48668;BME280;34453;52.198;5.004;2023-03-16T13:15:02;101238.41;;;12.37;100.00
48668;BME280;34453;52.198;5.004;2023-03-16T13:17:41;101234.41;;;12.33;100.00
48668;BME280;34453;52.198;5.004;2023-03-16T13:22:50;101217.91;;;12.51;100.00
48668;BME280;34453;52.198;5.004;2023-03-16T13:27:59;101221.91;;;12.82;100.00
48668;BME280;34453;52.198;5.004;2023-03-16T13:30:29;101203.63;;;13.09;100.00
48668;BME280;34453;52.198;5.004;2023-03-16T13:33:00;101211.97;;;13.04;100.00
48668;BME280;34453;52.198;5.004;2023-03-16T13:35:31;101206.34;;;12.99;100.00
48668;BME280;34453;52.198;5.004;2023-03-16T13:38:04;101195.03;;;13.16;100.00
48668;BME280;34453;52.198;5.004;2023-03-16T13:40:30;101197.16;;;13.31;100.00
48668;BME280;34453;52.198;5.004;2023-03-16T13:42:57;101202.41;;;13.31;100.00
48668;BME280;34453;52.198;5.004;2023-03-16T13:45:36;101204.63;;;13.25;100.00
48668;BME280;34453;52.198;5.004;2023-03-16T13:48:02;101209.63;;;13.29;100.00
48668;BME280;34453;52.198;5.004;2023-03-16T13:50:34;101204.94;;;13.40;100.00
48668;BME280;34453;52.198;5.004;2023-03-16T13:53:02;101201.94;;;13.53;100.00
48668;BME280;34453;52.198;5.004;2023-03-16T13:55:31;101202.31;;;13.40;100.00
48668;BME280;34453;52.198;5.004;2023-03-16T13:57:57;101197.91;;;13.41;100.00
48668;BME280;34453;52.198;5.004;2023-03-16T14:00:29;101206.16;;;13.46;100.00
48668;BME280;34453;52.198;5.004;2023-03-16T14:02:58;101199.63;;;13.50;100.00
48668;BME280;34453;52.198;5.004;2023-03-16T14:05:29;101194.25;;;13.78;100.00
48668;BME280;34453;52.198;5.004;2023-03-16T14:07:55;101191.59;;;13.70;100.00
48668;BME280;34453;52.198;5.004;2023-03-16T14:10:25;101185.88;;;13.74;100.00
48668;BME280;34453;52.198;5.004;2023-03-16T14:12:53;101190.03;;;14.11;100.00
48668;BME280;34453;52.198;5.004;2023-03-16T14:15:20;101173.94;;;13.88;100.00